Time;durP1;ratioP1;P1;durP2;ratioP2;P2;SDS_P1;SDS_P2;PMS_P1;PMS_P2;Temp;Humidity;BMP_temperature;BMP_pressure;BME280_temperature;BME280_humidity;BME280_pressure;Samples;Min_cycle;Max_cycle;Signal;HPM_P1;HPM_P2
2022/04/12 00:00:10;;;;;;;13.35;3.80;;;;;;;9.98;54.67;101183.66;5025957;28;20513;-81
2022/04/12 00:02:58;;;;;;;22.50;3.63;;;;;;;9.98;54.77;101176.31;5036843;28;20052;-81
2022/04/12 00:05:42;;;;;;;;;;;;;;;9.81;55.39;101176.06;5027054;28;20048;-80
2022/04/12 00:08:27;;;;;;;11.38;4.13;;;;;;;10.16;54.03;101170.03;5038966;28;19917;-80
2022/04/12 00:11:12;;;;;;;7.25;2.97;;;;;;;9.87;55.03;101177.59;5026412;28;20413;-80
2022/04/12 00:13:57;;;;;;;5.95;2.30;;;;;;;10.23;54.07;101166.91;5040096;28;20508;-80
2022/04/12 00:16:42;;;;;;;10.32;3.85;;;;;;;10.22;53.86;101168.81;5056889;28;20417;-80
2022/04/12 00:19:26;;;;;;;9.30;3.72;;;;;;;10.26;53.66;101164.38;5042449;28;20052;-80
2022/04/12 00:22:11;;;;;;;8.70;3.38;;;;;;;10.17;53.67;101163.50;5037766;28;20041;-80
2022/04/12 00:24:56;;;;;;;8.95;3.55;;;;;;;9.97;54.25;101169.28;5025022;28;20426;-80
2022/04/12 00:27:41;;;;;;;5.32;3.08;;;;;;;9.98;53.96;101162.75;5025427;28;20052;-80
2022/04/12 00:30:28;;;;;;;9.25;3.45;;;;;;;9.82;54.42;101161.41;5028480;28;20544;-80
2022/04/12 00:33:12;;;;;;;8.20;3.55;;;;;;;9.87;54.06;101156.69;5038385;28;20417;-81
2022/04/12 00:36:00;;;;;;;6.60;2.88;;;;;;;9.85;54.04;101158.09;5042687;28;20047;-81
2022/04/12 00:38:45;;;;;;;6.10;4.00;;;;;;;9.72;54.47;101156.16;5045947;28;20052;-80
2022/04/12 00:41:35;;;;;;;10.95;3.38;;;;;;;9.74;53.67;101153.94;5043317;28;20440;-80
2022/04/12 00:44:20;;;;;;;6.60;4.47;;;;;;;9.66;53.98;101150.00;5052957;28;20120;-81
2022/04/12 00:47:04;;;;;;;8.38;4.70;;;;;;;9.66;53.62;101154.63;5057248;28;20060;-81
2022/04/12 00:49:49;;;;;;;12.48;3.53;;;;;;;9.61;53.77;101135.69;5056170;28;20047;-81
2022/04/12 00:52:39;;;;;;;6.05;3.42;;;;;;;9.63;53.96;101144.38;5053750;28;20048;-81
2022/04/12 00:55:24;;;;;;;10.18;5.28;;;;;;;9.19;54.69;101137.50;5036560;28;20052;-82
2022/04/12 00:58:09;;;;;;;6.50;3.58;;;;;;;9.17;54.96;101141.59;5035776;28;20409;-81
2022/04/12 01:00:54;;;;;;;5.68;3.45;;;;;;;9.09;55.11;101142.28;5023355;28;20060;-82
2022/04/12 01:03:38;;;;;;;9.90;4.38;;;;;;;8.95;55.94;101142.19;5028957;28;20055;-81
2022/04/12 01:06:23;;;;;;;8.57;4.55;;;;;;;8.76;56.46;101147.63;5056225;28;20059;-81
2022/04/12 01:09:09;;;;;;;25.88;4.47;;;;;;;9.00;55.63;101140.22;5055583;28;20051;-79
2022/04/12 01:11:55;;;;;;;16.90;4.68;;;;;;;9.20;54.86;101133.66;5055439;28;20048;-80
2022/04/12 01:14:40;;;;;;;16.58;5.05;;;;;;;8.76;56.19;101130.53;5030740;28;20052;-80
2022/04/12 01:17:24;;;;;;;10.20;3.63;;;;;;;8.88;56.40;101134.44;5036836;28;20056;-80
2022/04/12 01:20:11;;;;;;;15.20;5.70;;;;;;;8.95;56.36;101134.88;5035059;28;20504;-80
2022/04/12 01:23:10;;;;;;;11.75;4.50;;;;;;;9.29;55.64;101134.63;5024349;28;20048;-80
2022/04/12 01:25:55;;;;;;;14.15;5.03;;;;;;;9.23;55.79;101135.00;5035686;28;20092;-80
2022/04/12 01:28:44;;;;;;;9.88;4.47;;;;;;;9.23;55.34;101130.38;5026489;28;20048;-80
2022/04/12 01:31:29;;;;;;;12.82;5.10;;;;;;;9.27;55.46;101127.88;5024025;28;20528;-81
2022/04/12 01:34:14;;;;;;;16.38;4.10;;;;;;;9.12;55.70;101128.13;5026867;28;20516;-80
2022/04/12 01:36:59;;;;;;;10.13;3.72;;;;;;;9.17;55.70;101130.75;5032148;28;20067;-80
2022/04/12 01:39:44;;;;;;;11.35;5.47;;;;;;;9.15;55.87;101131.03;5036232;28;20556;-81
2022/04/12 01:42:29;;;;;;;11.38;5.13;;;;;;;9.13;55.45;101127.81;5023011;28;20057;-81
2022/04/12 01:45:13;;;;;;;6.28;3.92;;;;;;;9.21;55.52;101134.47;5036434;28;20513;-81
2022/04/12 01:47:57;;;;;;;9.30;5.93;;;;;;;9.13;55.99;101135.97;5036860;28;20552;-81
2022/04/12 01:50:42;;;;;;;10.37;5.00;;;;;;;8.72;56.92;101130.31;5025205;28;20052;-82
2022/04/12 01:53:27;;;;;;;12.52;4.75;;;;;;;9.04;56.02;101126.06;5022498;28;20295;-82
2022/04/12 01:56:12;;;;;;;7.15;3.83;;;;;;;9.01;56.04;101138.31;5028100;28;20045;-81
2022/04/12 01:58:59;;;;;;;6.85;3.47;;;;;;;9.15;55.56;101136.47;5037855;28;20536;-81
2022/04/12 02:01:44;;;;;;;11.05;5.15;;;;;;;9.05;55.89;101136.63;5036602;28;20056;-81
2022/04/12 02:04:28;;;;;;;11.38;4.28;;;;;;;8.99;55.95;101140.50;5034832;28;20061;-81
2022/04/12 02:07:13;;;;;;;9.77;5.10;;;;;;;9.13;56.18;101137.88;5022826;28;20052;-82
2022/04/12 02:09:58;;;;;;;11.00;4.43;;;;;;;8.94;56.75;101135.16;5038397;28;20052;-81
2022/04/12 02:12:43;;;;;;;10.02;4.20;;;;;;;8.99;56.29;101135.88;5029980;28;20060;-81
2022/04/12 02:15:28;;;;;;;12.07;5.15;;;;;;;9.05;56.11;101128.47;5027310;28;20061;-80
2022/04/12 02:18:12;;;;;;;19.73;4.65;;;;;;;8.91;56.49;101122.19;5039412;28;20064;-81
2022/04/12 02:20:57;;;;;;;13.35;5.10;;;;;;;8.90;56.09;101121.38;5040262;28;20052;-80
2022/04/12 02:23:43;;;;;;;11.93;3.92;;;;;;;8.66;57.13;101117.13;5026575;28;20041;-81
2022/04/12 02:26:27;;;;;;;13.27;5.63;;;;;;;8.44;58.24;101123.09;5033785;28;20055;-80
2022/04/12 02:29:13;;;;;;;11.75;5.78;;;;;;;8.38;58.95;101125.06;5058801;28;20052;-80
2022/04/12 02:31:58;;;;;;;20.55;5.15;;;;;;;8.46;59.50;101126.34;5030929;28;20052;-81
2022/04/12 02:34:43;;;;;;;8.63;4.13;;;;;;;8.65;59.33;101131.78;5025157;28;20044;-81
2022/04/12 02:37:28;;;;;;;;;;;;;;;8.58;58.66;101127.50;5029439;28;20134;-80
2022/04/12 02:40:12;;;;;;;10.90;5.15;;;;;;;8.41;59.71;101124.50;5026663;28;19913;-81
2022/04/12 02:42:57;;;;;;;12.70;5.25;;;;;;;8.40;59.62;101127.50;5025493;28;20056;-81
2022/04/12 02:45:42;;;;;;;11.97;5.27;;;;;;;8.55;58.79;101124.59;5025549;28;20049;-81
2022/04/12 02:48:26;;;;;;;13.63;5.55;;;;;;;8.61;58.59;101125.31;5050560;28;20424;-81
2022/04/12 02:51:11;;;;;;;6.03;4.05;;;;;;;8.63;58.17;101125.84;5062248;28;20052;-81
2022/04/12 02:53:56;;;;;;;9.32;5.03;;;;;;;8.51;58.68;101124.38;5045885;28;20052;-81
2022/04/12 02:56:40;;;;;;;11.50;5.00;;;;;;;8.60;58.46;101127.22;5048085;28;20052;-81
2022/04/12 02:59:25;;;;;;;12.05;5.10;;;;;;;8.57;59.08;101120.50;5040968;28;20049;-81
2022/04/12 03:02:09;;;;;;;9.10;5.03;;;;;;;8.48;58.78;101124.94;5025712;28;20048;-81
2022/04/12 03:04:54;;;;;;;6.50;4.15;;;;;;;8.64;58.41;101111.19;5029345;28;20053;-81
2022/04/12 03:07:39;;;;;;;7.53;3.97;;;;;;;8.52;58.60;101114.34;5028328;28;20048;-81
2022/04/12 03:10:24;;;;;;;8.70;4.97;;;;;;;8.49;58.95;101110.28;5025157;28;20052;-82
2022/04/12 03:13:09;;;;;;;6.63;4.55;;;;;;;8.57;58.71;101114.28;5041077;28;20053;-81
2022/04/12 03:15:54;;;;;;;7.05;4.20;;;;;;;8.51;59.17;101118.94;5027680;28;20406;-80
2022/04/12 03:18:39;;;;;;;11.93;5.70;;;;;;;8.44;59.39;101121.19;5037722;28;20060;-81
2022/04/12 03:21:24;;;;;;;10.00;4.20;;;;;;;8.53;58.79;101116.75;5049841;28;20067;-81
2022/04/12 03:24:09;;;;;;;8.75;4.75;;;;;;;8.63;58.82;101125.84;5045387;28;20048;-81
2022/04/12 03:26:53;;;;;;;7.55;5.05;;;;;;;8.64;58.08;101125.53;5110178;23;20047;-79
2022/04/12 03:29:38;;;;;;;12.63;4.30;;;;;;;8.31;59.03;101124.63;5093116;28;20052;-79
2022/04/12 03:32:23;;;;;;;9.25;4.68;;;;;;;8.32;59.58;101125.44;5066298;28;20048;-80
2022/04/12 03:35:08;;;;;;;6.57;3.85;;;;;;;8.02;60.12;101123.88;5062707;28;20048;-80
2022/04/12 03:37:52;;;;;;;7.05;3.88;;;;;;;8.13;59.90;101119.94;5058590;28;20051;-79
2022/04/12 03:40:37;;;;;;;8.45;3.95;;;;;;;8.12;59.92;101121.84;5077273;28;20051;-79
2022/04/12 03:43:22;;;;;;;6.82;4.22;;;;;;;8.13;60.00;101125.34;5079907;28;20052;-79
2022/04/12 03:46:07;;;;;;;11.17;4.97;;;;;;;8.09;60.43;101125.13;5079104;28;20043;-79
2022/04/12 03:48:51;;;;;;;15.18;6.75;;;;;;;8.02;60.61;101130.09;5078960;28;20044;-79
2022/04/12 03:51:37;;;;;;;22.52;7.47;;;;;;;7.95;60.21;101129.63;5081553;28;20047;-79
2022/04/12 03:54:22;;;;;;;11.18;6.18;;;;;;;7.95;60.22;101126.09;5078107;28;20051;-79
2022/04/12 03:57:06;;;;;;;13.52;7.07;;;;;;;7.94;60.10;101129.91;5078479;28;20416;-79
2022/04/12 03:59:51;;;;;;;12.85;5.03;;;;;;;7.99;60.03;101135.25;5079679;28;20052;-79
2022/04/12 04:02:36;;;;;;;13.00;6.05;;;;;;;7.88;59.99;101136.47;5078903;28;20569;-79
2022/04/12 04:05:21;;;;;;;10.57;4.80;;;;;;;7.85;60.34;101129.72;5077837;28;20071;-79
2022/04/12 04:08:07;;;;;;;14.23;6.72;;;;;;;7.68;60.98;101127.44;5078916;28;20408;-79
2022/04/12 04:10:52;;;;;;;;;;;;;;;7.68;61.04;101137.47;5080599;28;20535;-79
2022/04/12 04:13:36;;;;;;;10.98;5.75;;;;;;;7.67;61.01;101142.06;5077206;28;19912;-78
2022/04/12 04:16:21;;;;;;;11.20;5.65;;;;;;;7.62;61.03;101135.91;5077112;28;20440;-79
2022/04/12 04:19:09;;;;;;;10.82;5.45;;;;;;;7.50;61.58;101141.72;5079348;28;20048;-79
2022/04/12 04:21:55;;;;;;;11.25;6.65;;;;;;;7.54;61.70;101137.34;5057617;28;20052;-79
2022/04/12 04:24:40;;;;;;;21.25;6.47;;;;;;;7.51;62.12;101147.94;5061422;28;20048;-79
2022/04/12 04:27:28;;;;;;;8.80;5.05;;;;;;;7.57;61.75;101146.78;5057609;28;20064;-80
2022/04/12 04:30:14;;;;;;;16.02;7.35;;;;;;;7.53;61.75;101149.25;5060734;28;20047;-80
2022/04/12 04:32:58;;;;;;;11.13;5.82;;;;;;;7.58;61.56;101143.78;5081458;28;20051;-79
2022/04/12 04:35:47;;;;;;;13.68;4.95;;;;;;;7.48;62.21;101137.66;5077317;28;20039;-79
2022/04/12 04:38:31;;;;;;;10.90;6.10;;;;;;;7.46;62.19;101151.50;5076804;28;20051;-80
2022/04/12 04:41:17;;;;;;;9.30;4.60;;;;;;;7.57;61.64;101153.00;5081145;28;20047;-80
2022/04/12 04:44:01;;;;;;;12.68;5.55;;;;;;;7.49;61.99;101144.69;5077850;28;20047;-79
2022/04/12 04:46:45;;;;;;;12.63;6.90;;;;;;;7.55;62.06;101155.19;5077926;28;20051;-79
2022/04/12 04:49:30;;;;;;;18.00;7.55;;;;;;;7.56;61.94;101153.28;5081927;28;20051;-79
2022/04/12 04:52:15;;;;;;;12.47;5.73;;;;;;;7.54;62.92;101155.47;5082974;28;20047;-79
2022/04/12 04:55:00;;;;;;;7.60;5.22;;;;;;;7.67;62.36;101155.59;5084374;28;20602;-79
2022/04/12 04:57:46;;;;;;;24.27;7.53;;;;;;;7.77;61.76;101162.03;5089908;28;20050;-79
2022/04/12 05:00:34;;;;;;;13.18;7.95;;;;;;;7.92;61.32;101165.41;5088150;28;20043;-80
2022/04/12 05:03:19;;;;;;;11.65;6.68;;;;;;;7.99;60.92;101159.63;5065995;28;20413;-79
2022/04/12 05:06:04;;;;;;;18.67;7.68;;;;;;;8.12;60.73;101170.63;5065622;28;20523;-79
2022/04/12 05:08:49;;;;;;;10.27;6.22;;;;;;;7.88;61.07;101163.53;5069066;28;20052;-80
2022/04/12 05:11:33;;;;;;;15.57;8.10;;;;;;;8.40;59.92;101168.16;5071823;28;20043;-80
2022/04/12 05:14:19;;;;;;;14.35;5.75;;;;;;;8.64;59.18;101170.81;5090669;28;20282;-79
2022/04/12 05:17:04;;;;;;;9.35;6.10;;;;;;;8.48;59.76;101175.66;5085855;28;20407;-80
2022/04/12 05:19:49;;;;;;;14.43;6.10;;;;;;;8.80;58.66;101174.94;5084803;28;20043;-79
2022/04/12 05:22:33;;;;;;;9.47;5.50;;;;;;;9.00;58.26;101178.19;5087224;28;20059;-80
2022/04/12 05:25:19;;;;;;;13.55;5.38;;;;;;;9.35;57.48;101184.19;5085718;28;20064;-80
2022/04/12 05:28:04;;;;;;;16.60;7.15;;;;;;;9.54;57.41;101178.75;5084775;28;20051;-82
2022/04/12 05:30:48;;;;;;;32.33;6.55;;;;;;;9.75;57.19;101191.66;5084333;28;20056;-79
2022/04/12 05:33:33;;;;;;;16.63;5.57;;;;;;;9.56;56.66;101187.38;5086378;28;20047;-80
2022/04/12 05:36:18;;;;;;;13.13;5.45;;;;;;;9.85;56.41;101190.69;5085620;28;20043;-79
2022/04/12 05:39:03;;;;;;;21.98;6.03;;;;;;;10.11;55.90;101199.97;5085355;28;20043;-79
2022/04/12 05:41:48;;;;;;;26.17;5.85;;;;;;;10.36;55.45;101192.50;5068107;28;20051;-78
2022/04/12 05:44:33;;;;;;;10.85;5.32;;;;;;;10.66;54.62;101195.41;5068625;28;20051;-79
2022/04/12 05:47:18;;;;;;;;;;;;;;;11.06;53.70;101201.88;5068762;28;20056;-79
2022/04/12 05:50:03;;;;;;;15.15;6.13;;;;;;;11.17;53.42;101199.75;5070142;28;19913;-79
2022/04/12 05:52:48;;;;;;;;;;;;;;;11.50;52.55;101203.03;5071393;28;20048;-78
2022/04/12 05:55:34;;;;;;;12.30;5.95;;;;;;;11.44;52.75;101198.81;5067353;28;19920;-79
2022/04/12 05:58:19;;;;;;;13.82;5.85;;;;;;;10.86;55.16;101205.06;5065780;28;20044;-78
2022/04/12 06:01:04;;;;;;;7.75;4.82;;;;;;;11.35;53.31;101206.94;5066728;28;20052;-79
2022/04/12 06:03:49;;;;;;;17.25;5.85;;;;;;;11.70;52.75;101205.25;5068585;28;20052;-83
2022/04/12 06:06:34;;;;;;;20.98;6.97;;;;;;;12.60;50.52;101209.41;5069638;28;20398;-80
2022/04/12 06:09:19;;;;;;;11.07;5.57;;;;;;;13.15;48.84;101226.13;5068307;28;20052;-80
2022/04/12 06:12:05;;;;;;;11.68;6.22;;;;;;;14.57;45.65;101231.53;5067375;28;20056;-80
2022/04/12 06:14:50;;;;;;;18.00;6.75;;;;;;;16.34;41.06;101232.66;5071881;28;20048;-80
2022/04/12 06:17:36;;;;;;;13.38;6.50;;;;;;;16.85;39.71;101237.50;5070610;28;20293;-81
2022/04/12 06:20:22;;;;;;;10.80;6.28;;;;;;;17.51;38.31;101237.13;5068730;28;20067;-80
2022/04/12 06:23:06;;;;;;;;;;;;;;;18.73;35.69;101238.06;5075467;28;20056;-80
2022/04/12 06:25:51;;;;;;;11.70;5.82;;;;;;;19.41;34.50;101231.28;5066536;28;20373;-80
2022/04/12 06:28:35;;;;;;;22.15;7.13;;;;;;;19.77;33.59;101230.88;5066224;28;20048;-83
2022/04/12 06:31:20;;;;;;;14.50;5.93;;;;;;;20.95;31.70;101236.47;5063681;28;20052;-79
2022/04/12 06:34:05;;;;;;;11.68;5.93;;;;;;;20.89;31.88;101236.81;5063704;28;20051;-79
2022/04/12 06:36:50;;;;;;;12.52;5.82;;;;;;;22.79;29.13;101242.19;5070475;28;20075;-78
2022/04/12 06:39:34;;;;;;;14.23;5.68;;;;;;;21.47;30.49;101249.50;5081739;28;20052;-79
2022/04/12 06:42:19;;;;;;;10.40;5.05;;;;;;;23.28;27.51;101252.78;5077410;28;20408;-80
2022/04/12 06:45:06;;;;;;;12.48;5.50;;;;;;;23.17;27.83;101251.13;5073134;28;20055;-79
2022/04/12 06:47:58;;;;;;;9.55;5.63;;;;;;;22.94;28.49;101254.16;5080648;28;20055;-80
2022/04/12 06:50:43;;;;;;;21.85;5.93;;;;;;;25.06;24.97;101259.50;5087280;28;20043;-81
2022/04/12 06:53:28;;;;;;;11.27;5.55;;;;;;;25.58;24.95;101257.00;5087899;28;20055;-82
2022/04/12 06:56:13;;;;;;;10.95;4.68;;;;;;;25.08;25.44;101252.38;5087325;28;20048;-83
2022/04/12 06:58:57;;;;;;;21.63;6.22;;;;;;;24.59;25.67;101255.94;5089869;28;20044;-82
2022/04/12 07:01:42;;;;;;;34.08;7.60;;;;;;;23.85;30.76;101266.94;5083233;28;20044;-82
2022/04/12 07:04:27;;;;;;;;;;;;;;;22.67;29.05;101253.53;5082268;28;20051;-84
2022/04/12 07:07:11;;;;;;;;;;;;;;;25.66;25.14;101264.91;5085253;28;19912;-83
2022/04/12 07:09:56;;;;;;;;;;;;;;;23.81;26.86;101253.03;5083420;28;20385;-82
2022/04/12 07:12:41;;;;;;;;;;;;;;;26.51;23.75;101258.06;5078581;28;19913;-83
2022/04/12 07:15:25;;;;;;;;;;;;;;;27.20;22.80;101263.41;5073538;28;19913;-84
2022/04/12 07:18:10;;;;;;;;;;;;;;;28.56;21.11;101265.97;5071859;28;19913;-83
2022/04/12 07:20:55;;;;;;;;;;;;;;;28.40;20.84;101269.44;5070888;28;19912;-83
2022/04/12 07:23:41;;;;;;;;;;;;;;;28.39;20.69;101273.47;5068694;28;19912;-82
2022/04/12 07:26:25;;;;;;;;;;;;;;;28.63;19.89;101277.88;5071625;28;19920;-82
2022/04/12 07:29:10;;;;;;;;;;;;;;;28.69;20.40;101264.97;5069981;28;19912;-83
2022/04/12 07:31:55;;;;;;;;;;;;;;;28.65;20.92;101275.41;5070254;28;19917;-84
2022/04/12 07:34:40;;;;;;;;;;;;;;;26.54;21.98;101262.81;5070206;28;19912;-83
2022/04/12 07:37:25;;;;;;;;;;;;;;;28.31;20.96;101263.59;5075858;28;19912;-82
2022/04/12 07:40:09;;;;;;;;;;;;;;;29.64;19.52;101268.00;5085981;28;19912;-82
2022/04/12 07:42:54;;;;;;;;;;;;;;;30.98;18.39;101266.81;5080087;28;19913;-83
2022/04/12 07:45:39;;;;;;;;;;;;;;;33.74;15.61;101273.25;5064185;28;19917;-83
2022/04/12 07:48:23;;;;;;;;;;;;;;;31.55;17.57;101279.31;5061333;28;19912;-85
2022/04/12 07:51:07;;;;;;;;;;;;;;;31.14;17.72;101282.13;5067328;28;20389;-82
2022/04/12 07:53:52;;;;;;;;;;;;;;;29.47;18.55;101276.75;5064259;28;19912;-82
2022/04/12 07:56:37;;;;;;;;;;;;;;;29.39;19.51;101273.31;5061661;28;19917;-83
2022/04/12 07:59:21;;;;;;;13.23;5.00;;;;;;;31.41;17.23;101277.72;5066684;28;20381;-82
2022/04/12 08:02:06;;;;;;;8.77;4.18;;;;;;;31.80;16.57;101285.03;5065610;28;20056;-82
2022/04/12 08:04:54;;;;;;;8.93;3.78;;;;;;;31.31;17.08;101275.19;5065119;28;20044;-82
2022/04/12 08:07:39;;;;;;;14.27;3.90;;;;;;;27.48;21.67;101279.06;5068542;28;20064;-82
2022/04/12 08:10:25;;;;;;;10.13;4.63;;;;;;;27.31;22.06;101274.47;5067406;28;20108;-82
2022/04/12 08:13:10;;;;;;;8.50;4.03;;;;;;;25.55;23.81;101276.09;5064428;28;20056;-82
2022/04/12 08:15:55;;;;;;;9.35;4.25;;;;;;;25.43;24.30;101278.50;5067993;28;20040;-81
2022/04/12 08:18:40;;;;;;;11.18;4.90;;;;;;;24.95;24.93;101273.44;5065897;28;20089;-81
2022/04/12 08:21:32;;;;;;;7.20;4.22;;;;;;;27.85;21.28;101290.19;5065248;28;20059;-82
2022/04/12 08:24:17;;;;;;;7.50;4.32;;;;;;;29.73;18.94;101282.22;5065461;28;20166;-80
2022/04/12 08:27:02;;;;;;;6.38;4.03;;;;;;;33.24;15.51;101283.56;5065592;28;20048;-82
2022/04/12 08:29:47;;;;;;;11.05;4.70;;;;;;;34.00;14.45;101285.16;5065416;28;20056;-82
2022/04/12 08:32:33;;;;;;;9.73;4.93;;;;;;;32.49;15.45;101292.97;5069785;28;20052;-81
2022/04/12 08:35:18;;;;;;;7.05;4.30;;;;;;;32.80;15.41;101284.72;5067180;28;20063;-81
2022/04/12 08:38:03;;;;;;;8.50;4.80;;;;;;;33.36;14.37;101288.34;5065001;28;20048;-81
2022/04/12 08:40:53;;;;;;;9.85;4.57;;;;;;;33.21;14.54;101290.13;5068935;28;20052;-82
2022/04/12 08:43:40;;;;;;;8.60;4.63;;;;;;;32.72;15.06;101286.97;5066290;28;20044;-82
2022/04/12 08:46:27;;;;;;;10.05;4.80;;;;;;;31.26;16.36;101284.16;5065562;28;20052;-82
2022/04/12 08:49:12;;;;;;;13.07;4.88;;;;;;;31.87;15.49;101277.59;5068027;28;20067;-80
2022/04/12 08:51:58;;;;;;;11.13;4.78;;;;;;;34.01;13.73;101287.53;5065940;28;20067;-81
2022/04/12 08:54:44;;;;;;;8.77;5.13;;;;;;;34.26;13.83;101284.53;5064973;28;20524;-82
2022/04/12 08:57:29;;;;;;;7.60;4.88;;;;;;;34.86;13.28;101289.69;5068463;28;20051;-81
2022/04/12 09:00:15;;;;;;;15.65;5.82;;;;;;;35.09;12.98;101277.78;5066019;28;20052;-80
2022/04/12 09:02:59;;;;;;;12.25;5.57;;;;;;;37.86;10.29;101284.66;5077081;28;20063;-82
2022/04/12 09:05:44;;;;;;;13.07;5.50;;;;;;;35.59;12.48;101286.88;5070510;28;20055;-82
2022/04/12 09:08:32;;;;;;;7.95;5.13;;;;;;;36.97;11.33;101290.69;5067023;28;20067;-82
2022/04/12 09:11:17;;;;;;;13.10;5.53;;;;;;;36.37;11.65;101288.88;5064354;28;20432;-82
2022/04/12 09:14:02;;;;;;;18.45;5.10;;;;;;;37.25;10.32;101295.66;5068053;28;20052;-82
2022/04/12 09:16:47;;;;;;;8.82;4.65;;;;;;;36.86;10.67;101294.09;5064188;28;20048;-82
2022/04/12 09:19:42;;;;;;;11.90;5.50;;;;;;;39.21;9.18;101288.16;5076650;28;20060;-81
2022/04/12 09:22:28;;;;;;;7.88;4.22;;;;;;;40.30;8.74;101294.63;5081290;28;20063;-80
2022/04/12 09:25:15;;;;;;;10.98;4.97;;;;;;;38.22;9.18;101289.13;5074031;28;20055;-82
2022/04/12 09:28:02;;;;;;;10.27;5.25;;;;;;;36.14;10.77;101286.75;5086936;28;20048;-80
2022/04/12 09:30:47;;;;;;;10.25;4.13;;;;;;;39.01;8.85;101291.81;5087380;28;20059;-81
2022/04/12 09:33:37;;;;;;;9.98;5.47;;;;;;;36.98;10.09;101293.03;5091317;28;20051;-81
2022/04/12 09:36:22;;;;;;;9.27;5.63;;;;;;;38.47;8.89;101279.19;5090415;28;20042;-81
2022/04/12 09:39:07;;;;;;;7.60;5.13;;;;;;;37.97;9.34;101281.22;5091585;28;20056;-81
2022/04/12 09:41:52;;;;;;;12.43;5.53;;;;;;;37.96;9.63;101277.59;5089751;28;20051;-81
2022/04/12 09:44:36;;;;;;;12.05;5.30;;;;;;;37.61;9.39;101271.84;5087310;28;20039;-81
2022/04/12 09:47:21;;;;;;;12.45;5.55;;;;;;;40.40;8.01;101266.69;5088002;28;20051;-81
2022/04/12 09:50:07;;;;;;;8.48;5.40;;;;;;;40.85;7.62;101282.72;5087399;28;20043;-81
2022/04/12 09:52:55;;;;;;;8.13;4.72;;;;;;;38.09;9.60;101272.44;5087034;28;20048;-82
2022/04/12 09:55:41;;;;;;;8.73;5.32;;;;;;;38.13;9.50;101268.59;5090857;28;20047;-81
2022/04/12 09:58:26;;;;;;;11.15;5.38;;;;;;;39.18;9.08;101263.53;5086468;28;20416;-81
2022/04/12 10:01:11;;;;;;;13.85;5.50;;;;;;;38.09;9.12;101261.06;5086146;28;20055;-81
2022/04/12 10:03:58;;;;;;;11.48;5.10;;;;;;;35.09;11.01;101249.50;5086741;28;20048;-81
2022/04/12 10:06:44;;;;;;;13.07;5.55;;;;;;;39.30;8.59;101251.00;5087300;28;20051;-81
2022/04/12 10:09:30;;;;;;;22.23;5.82;;;;;;;42.29;7.28;101263.44;5080955;28;20044;-80
2022/04/12 10:12:17;;;;;;;11.38;5.30;;;;;;;41.37;7.34;101257.47;5071329;28;20047;-80
2022/04/12 10:15:01;;;;;;;12.10;5.57;;;;;;;39.83;8.18;101243.97;5071061;28;20044;-81
2022/04/12 10:17:48;;;;;;;16.80;6.38;;;;;;;40.80;7.80;101252.09;5075466;28;20044;-81
2022/04/12 10:20:34;;;;;;;12.05;5.25;;;;;;;36.28;10.40;101243.56;5082918;28;20043;-80
2022/04/12 10:23:23;;;;;;;12.73;4.97;;;;;;;36.65;10.36;101235.63;5074830;28;20032;-80
2022/04/12 10:26:09;;;;;;;13.00;5.93;;;;;;;39.16;8.84;101243.34;5067026;28;20048;-80
2022/04/12 10:29:00;;;;;;;13.98;7.13;;;;;;;38.58;9.17;101228.16;5070764;28;20051;-81
2022/04/12 10:31:57;;;;;;;12.05;5.80;;;;;;;40.51;7.93;101233.28;5067977;28;20405;-81
2022/04/12 10:35:02;;;;;;;9.02;5.50;;;;;;;40.68;7.96;101221.22;5066324;28;20048;-81
2022/04/12 10:37:47;;;;;;;13.38;5.90;;;;;;;43.30;6.71;101227.34;5065416;28;20056;-81
2022/04/12 10:40:34;;;;;;;12.05;5.82;;;;;;;42.94;6.70;101221.56;5066287;28;20055;-81
2022/04/12 10:43:33;;;;;;;11.18;5.45;;;;;;;41.03;7.80;101224.44;5065809;28;20056;-81
2022/04/12 10:46:18;;;;;;;9.00;5.40;;;;;;;40.81;7.92;101207.25;5083344;28;20043;-81
2022/04/12 10:49:06;;;;;;;8.68;5.43;;;;;;;41.13;7.28;101205.78;5085646;28;20048;-81
2022/04/12 10:52:00;;;;;;;10.00;6.15;;;;;;;40.04;8.19;101199.84;5089622;28;20048;-81
2022/04/12 10:54:46;;;;;;;8.57;5.68;;;;;;;38.53;9.06;101194.75;5087749;28;20063;-80
2022/04/12 10:57:31;;;;;;;7.30;5.47;;;;;;;41.72;7.24;101211.25;5086419;28;20512;-81
2022/04/12 11:00:18;;;;;;;9.32;5.72;;;;;;;41.00;7.42;101196.91;5077186;28;20048;-81
2022/04/12 11:03:04;;;;;;;10.77;5.32;;;;;;;40.87;7.30;101202.34;5069706;28;20063;-80
2022/04/12 11:05:55;;;;;;;7.95;5.38;;;;;;;40.81;7.70;101202.31;5074693;28;20611;-80
2022/04/12 11:08:48;;;;;;;12.00;5.32;;;;;;;41.49;7.08;101204.03;5079555;28;20043;-81
2022/04/12 11:11:41;;;;;;;14.52;5.55;;;;;;;41.24;7.29;101197.25;5077989;28;20052;-81
2022/04/12 11:14:36;;;;;;;10.45;5.82;;;;;;;39.62;7.62;101187.09;5067534;28;20039;-81
2022/04/12 11:17:28;;;;;;;12.35;6.28;;;;;;;40.70;7.39;101181.53;5064449;28;20044;-79
2022/04/12 11:20:21;;;;;;;8.45;5.35;;;;;;;40.23;8.02;101175.38;5066692;28;20044;-80
2022/04/12 11:23:09;;;;;;;9.25;5.47;;;;;;;35.00;11.48;101167.50;5078064;28;20043;-81
2022/04/12 11:25:53;;;;;;;9.52;5.80;;;;;;;39.18;8.40;101172.47;5079109;28;20059;-80
2022/04/12 11:28:39;;;;;;;9.73;6.15;;;;;;;42.05;6.88;101181.88;5072416;28;20577;-80
2022/04/12 11:31:24;;;;;;;12.88;6.03;;;;;;;40.62;7.54;101177.63;5073773;28;20599;-81
2022/04/12 11:34:10;;;;;;;12.60;6.15;;;;;;;39.97;7.85;101169.00;5076169;28;20048;-80
2022/04/12 11:36:58;;;;;;;16.15;5.80;;;;;;;39.57;8.58;101167.91;5079030;28;20047;-81
2022/04/12 11:39:44;;;;;;;9.27;5.47;;;;;;;40.12;8.19;101172.44;5080600;28;20056;-81
2022/04/12 11:42:29;;;;;;;11.20;5.68;;;;;;;36.97;9.68;101171.59;5080477;28;20061;-82
2022/04/12 11:45:14;;;;;;;11.48;7.00;;;;;;;36.94;10.06;101170.50;5086472;28;20047;-82
2022/04/12 11:47:59;;;;;;;12.48;5.22;;;;;;;37.78;9.68;101160.63;5087051;28;20051;-81
2022/04/12 11:50:55;;;;;;;10.63;5.28;;;;;;;40.96;7.71;101156.44;5084648;28;20067;-82
2022/04/12 11:53:50;;;;;;;17.85;6.20;;;;;;;38.97;9.11;101148.97;5085057;28;20048;-82
2022/04/12 11:56:35;;;;;;;10.48;5.22;;;;;;;41.18;8.10;101159.34;5084377;28;20048;-83
2022/04/12 11:59:19;;;;;;;13.85;4.93;;;;;;;39.87;8.59;101156.25;5085385;28;20055;-83
2022/04/12 12:02:06;;;;;;;9.02;5.00;;;;;;;38.13;9.87;101141.50;5080926;28;20051;-83
2022/04/12 12:04:54;;;;;;;10.95;5.55;;;;;;;34.31;12.23;101131.41;5081240;28;20551;-82
2022/04/12 12:07:40;;;;;;;16.27;7.25;;;;;;;37.35;9.83;101137.47;5083575;28;20427;-82
2022/04/12 12:10:29;;;;;;;11.18;5.75;;;;;;;39.61;8.01;101142.84;5080909;28;20051;-83
2022/04/12 12:13:14;;;;;;;10.35;5.30;;;;;;;41.29;7.43;101150.00;5085230;28;20047;-82
2022/04/12 12:15:59;;;;;;;7.82;5.10;;;;;;;43.18;6.80;101154.28;5082914;28;20047;-83
2022/04/12 12:18:45;;;;;;;13.38;5.53;;;;;;;38.88;9.37;101138.56;5081326;28;20051;-83
2022/04/12 12:21:30;;;;;;;10.70;5.97;;;;;;;36.48;10.21;101135.28;5081142;28;20440;-82
2022/04/12 12:24:15;;;;;;;12.73;5.20;;;;;;;40.72;8.24;101148.34;5083295;28;20047;-82
2022/04/12 12:27:00;;;;;;;9.10;6.05;;;;;;;37.55;9.38;101142.44;5081364;28;20055;-82
2022/04/12 12:29:46;;;;;;;10.07;5.00;;;;;;;37.67;9.56;101132.84;5080523;28;20047;-83
2022/04/12 12:32:35;;;;;;;8.93;5.78;;;;;;;38.40;8.86;101126.84;5081499;28;20048;-82
2022/04/12 12:35:23;;;;;;;13.35;5.65;;;;;;;38.16;9.24;101134.81;5080607;28;20424;-82
2022/04/12 12:38:13;;;;;;;8.68;6.90;;;;;;;39.21;8.44;101131.63;5086855;28;20432;-82
2022/04/12 12:40:58;;;;;;;18.10;5.70;;;;;;;39.38;7.90;101140.31;5083019;28;20527;-83
2022/04/12 12:43:43;;;;;;;11.20;5.75;;;;;;;38.03;9.16;101132.34;5080467;28;20056;-83
2022/04/12 12:46:31;;;;;;;8.13;5.07;;;;;;;37.80;9.38;101129.66;5083944;28;20055;-83
2022/04/12 12:49:16;;;;;;;9.50;5.80;;;;;;;38.50;8.92;101121.84;5083683;28;20043;-83
2022/04/12 12:52:03;;;;;;;8.70;5.40;;;;;;;37.38;9.90;101116.63;5082482;28;20070;-82
2022/04/12 12:54:55;;;;;;;8.55;5.35;;;;;;;34.15;12.08;101111.09;5085797;28;20044;-82
2022/04/12 12:57:46;;;;;;;40.97;6.82;;;;;;;34.11;12.61;101096.34;5080333;28;20044;-82